createdAt,value
2023-04-28T00:00:39.757Z,100645.41
2023-04-28T00:03:07.680Z,100645.59
2023-04-28T00:05:35.633Z,100644.06
2023-04-28T00:08:03.855Z,100638.78
2023-04-28T00:10:31.640Z,100643.88
2023-04-28T00:12:59.440Z,100636.75
2023-04-28T00:15:27.752Z,100636.75
2023-04-28T00:17:55.742Z,100635.03
2023-04-28T00:20:23.672Z,100637.94
2023-04-28T00:22:51.580Z,100636.75
2023-04-28T00:25:19.359Z,100634.19
2023-04-28T00:27:47.168Z,100632.16
2023-04-28T00:30:14.985Z,100627.91
2023-04-28T00:32:42.894Z,100619.06
2023-04-28T00:35:11.126Z,100621.09
2023-04-28T00:37:38.966Z,100612.94
2023-04-28T00:40:07.334Z,100608.53
2023-04-28T00:42:35.205Z,100607.84
2023-04-28T00:45:06.240Z,100606.16
2023-04-28T00:47:34.102Z,100609.03
2023-04-28T00:50:02.016Z,100605.50
2023-04-28T00:52:29.790Z,100592.06
2023-04-28T00:54:57.606Z,100593.94
2023-04-28T00:57:25.898Z,100591.22
2023-04-28T00:59:53.895Z,100595.81
2023-04-28T01:02:21.852Z,100589.34
2023-04-28T01:04:49.890Z,100592.94
2023-04-28T01:07:17.750Z,100593.94
2023-04-28T01:09:47.911Z,100589.53
2023-04-28T01:12:15.941Z,100586.13
2023-04-28T01:14:43.970Z,100579.00
2023-04-28T01:17:11.941Z,100577.97
2023-04-28T01:19:39.798Z,100582.72
2023-04-28T01:22:07.622Z,100577.13
2023-04-28T01:24:35.488Z,100571.69
2023-04-28T01:27:03.427Z,100571.00
2023-04-28T01:29:31.210Z,100565.41
2023-04-28T01:31:59.168Z,100567.44
2023-04-28T01:34:26.963Z,100559.63
2023-04-28T01:36:54.821Z,100564.72
2023-04-28T01:39:22.622Z,100565.56
2023-04-28T01:41:50.485Z,100558.75
2023-04-28T01:44:18.705Z,100560.28
2023-04-28T01:46:46.854Z,100559.63
2023-04-28T01:49:14.681Z,100556.91
2023-04-28T01:51:43.022Z,100555.19
2023-04-28T01:54:11.316Z,100542.81
2023-04-28T01:56:39.186Z,100548.44
2023-04-28T01:59:06.969Z,100549.44
2023-04-28T02:01:35.011Z,100549.13
2023-04-28T02:04:03.171Z,100539.09
2023-04-28T02:06:31.179Z,100538.56
2023-04-28T02:08:58.988Z,100522.25
2023-04-28T02:11:26.791Z,100523.44
2023-04-28T02:13:54.619Z,100528.03
2023-04-28T02:16:22.442Z,100529.06
2023-04-28T02:18:51.146Z,100530.75
2023-04-28T02:21:18.986Z,100524.63
2023-04-28T02:23:46.988Z,100518.00
2023-04-28T02:26:15.197Z,100519.22
2023-04-28T02:28:43.147Z,100514.66
2023-04-28T02:31:11.042Z,100501.72
2023-04-28T02:33:39.115Z,100501.38
2023-04-28T02:36:07.068Z,100499.19
2023-04-28T02:38:34.850Z,100499.19
2023-04-28T02:41:02.695Z,100496.63
2023-04-28T02:43:30.504Z,100499.34
2023-04-28T02:45:58.490Z,100496.13
2023-04-28T02:48:26.487Z,100497.81
2023-04-28T02:50:54.327Z,100493.22
2023-04-28T02:53:22.192Z,100490.34
2023-04-28T02:55:50.283Z,100488.97
2023-04-28T02:58:18.686Z,100485.25
2023-04-28T03:00:46.608Z,100492.38
2023-04-28T03:03:14.816Z,100492.38
2023-04-28T03:05:42.846Z,100494.94
2023-04-28T03:08:10.639Z,100490.69
2023-04-28T03:10:38.502Z,100493.22
2023-04-28T03:13:06.451Z,100481.34
2023-04-28T03:15:34.285Z,100477.78
2023-04-28T03:18:02.428Z,100482.34
2023-04-28T03:20:30.227Z,100471.69
2023-04-28T03:22:58.291Z,100466.91
2023-04-28T03:25:26.094Z,100468.63
2023-04-28T03:27:53.906Z,100458.09
2023-04-28T03:30:21.782Z,100447.22
2023-04-28T03:32:49.709Z,100454.00
2023-04-28T03:35:17.554Z,100453.66
2023-04-28T03:37:45.312Z,100447.91
2023-04-28T03:40:13.442Z,100450.63
2023-04-28T03:42:41.286Z,100441.78
2023-04-28T03:45:09.198Z,100431.91
2023-04-28T03:47:37.000Z,100428.00
2023-04-28T03:50:04.743Z,100415.81
2023-04-28T03:52:32.556Z,100412.25
2023-04-28T03:55:00.527Z,100408.84
2023-04-28T03:57:28.490Z,100412.41
2023-04-28T03:59:56.344Z,100409.53
2023-04-28T04:02:24.381Z,100413.41
2023-04-28T04:04:52.463Z,100415.09
2023-04-28T04:07:20.450Z,100404.44
2023-04-28T04:09:48.350Z,100401.88
2023-04-28T04:12:16.161Z,100401.72
2023-04-28T04:14:44.173Z,100401.88
2023-04-28T04:17:11.951Z,100402.56
2023-04-28T04:19:39.834Z,100402.19
2023-04-28T04:22:07.643Z,100406.28
2023-04-28T04:24:35.484Z,100394.56
2023-04-28T04:27:03.285Z,100399.00
2023-04-28T04:29:31.703Z,100388.78
2023-04-28T04:31:59.477Z,100385.88
2023-04-28T04:34:27.243Z,100381.31
2023-04-28T04:36:55.047Z,100390.13
2023-04-28T04:39:22.970Z,100381.47
2023-04-28T04:41:50.969Z,100380.94
2023-04-28T04:44:19.293Z,100372.47
2023-04-28T04:46:47.740Z,100380.63
2023-04-28T04:49:15.669Z,100370.94
2023-04-28T04:51:43.486Z,100373.81
2023-04-28T04:54:11.377Z,100370.06
2023-04-28T04:56:39.172Z,100359.19
2023-04-28T04:59:06.990Z,100382.66
2023-04-28T05:01:34.762Z,100378.75
2023-04-28T05:04:02.748Z,100371.44
2023-04-28T05:06:31.340Z,100375.16
2023-04-28T05:09:01.593Z,100371.38
2023-04-28T05:11:29.399Z,100376.66
2023-04-28T05:13:58.037Z,100367.47
2023-04-28T05:16:25.798Z,100369.34
2023-04-28T05:18:53.739Z,100363.22
2023-04-28T05:21:21.639Z,100366.28
2023-04-28T05:23:50.066Z,100373.38
2023-04-28T05:26:20.915Z,100373.38
2023-04-28T05:28:48.667Z,100371.53
2023-04-28T05:31:16.540Z,100374.75
2023-04-28T05:33:44.348Z,100356.38
2023-04-28T05:36:12.522Z,100353.66
2023-04-28T05:38:40.531Z,100361.63
2023-04-28T05:41:08.734Z,100356.03
2023-04-28T05:43:38.549Z,100351.25
2023-04-28T05:46:18.091Z,100349.03
2023-04-28T05:48:55.862Z,100351.94
2023-04-28T05:51:23.717Z,100351.94
2023-04-28T05:53:52.259Z,100340.50
2023-04-28T05:56:20.129Z,100342.56
2023-04-28T05:58:49.727Z,100342.38
2023-04-28T06:01:18.006Z,100342.22
2023-04-28T06:03:47.841Z,100338.94
2023-04-28T06:06:16.022Z,100337.41
2023-04-28T06:08:43.967Z,100334.94
2023-04-28T06:11:11.871Z,100338.47
2023-04-28T06:13:39.628Z,100341.69
2023-04-28T06:16:07.804Z,100346.28
2023-04-28T06:18:36.027Z,100339.31
2023-04-28T06:21:03.876Z,100338.66
2023-04-28T06:23:33.143Z,100341.88
2023-04-28T06:26:01.106Z,100341.13
2023-04-28T06:28:55.425Z,100336.28
2023-04-28T06:31:23.322Z,100338.44
2023-04-28T06:33:51.369Z,100338.63
2023-04-28T06:36:19.235Z,100334.22
2023-04-28T06:38:57.579Z,100331.50
2023-04-28T06:41:26.623Z,100334.22
2023-04-28T06:43:54.465Z,100326.22
2023-04-28T06:46:22.385Z,100320.78
2023-04-28T06:48:50.448Z,100322.00
2023-04-28T06:51:18.392Z,100314.50
2023-04-28T06:53:46.595Z,100316.69
2023-04-28T06:56:14.449Z,100323.50
2023-04-28T06:58:42.525Z,100321.81
2023-04-28T07:01:10.444Z,100318.91
2023-04-28T07:03:39.736Z,100305.78
2023-04-28T07:06:07.893Z,100307.47
2023-04-28T07:08:37.022Z,100305.59
2023-04-28T07:11:07.658Z,100300.81
2023-04-28T07:13:35.514Z,100304.38
2023-04-28T07:16:03.332Z,100307.97
2023-04-28T07:18:31.280Z,100310.69
2023-04-28T07:20:59.223Z,100304.22
2023-04-28T07:23:27.047Z,100304.22
2023-04-28T07:25:55.244Z,100289.56
2023-04-28T07:28:23.057Z,100296.72
2023-04-28T07:30:50.985Z,100305.56
2023-04-28T07:33:18.887Z,100294.28
2023-04-28T07:35:48.036Z,100284.91
2023-04-28T07:38:17.305Z,100295.59
2023-04-28T07:40:45.289Z,100287.34
2023-04-28T07:43:14.179Z,100305.00
2023-04-28T07:45:42.130Z,100297.50
2023-04-28T07:48:10.124Z,100295.44
2023-04-28T07:50:37.967Z,100287.06
2023-04-28T07:53:10.245Z,100287.56
2023-04-28T07:55:38.779Z,100276.56
2023-04-28T07:58:06.557Z,100284.16
2023-04-28T08:00:35.647Z,100276.47
2023-04-28T08:03:03.778Z,100277.97
2023-04-28T08:05:34.601Z,100263.53
2023-04-28T08:08:04.722Z,100266.03
2023-04-28T08:10:32.583Z,100269.81
2023-04-28T08:13:02.422Z,100277.31
2023-04-28T08:15:30.426Z,100273.09
2023-04-28T08:17:58.400Z,100271.41
2023-04-28T08:20:29.658Z,100271.78
2023-04-28T08:22:57.591Z,100273.84
2023-04-28T08:25:25.934Z,100263.81
2023-04-28T08:27:57.344Z,100270.09
2023-04-28T08:30:26.003Z,100271.59
2023-04-28T08:32:54.177Z,100265.31
2023-04-28T08:35:22.146Z,100272.44
2023-04-28T08:37:52.375Z,100272.44
2023-04-28T08:40:20.387Z,100273.09
2023-04-28T08:42:48.288Z,100275.66
2023-04-28T08:45:29.573Z,100279.88
2023-04-28T08:47:57.596Z,100279.09
2023-04-28T08:50:29.534Z,100280.47
2023-04-28T08:52:58.581Z,100281.31
2023-04-28T08:55:32.415Z,100282.81
2023-04-28T08:58:00.299Z,100286.56
2023-04-28T09:00:28.656Z,100287.59
2023-04-28T09:02:56.640Z,100289.28
2023-04-28T09:05:25.826Z,100292.00
2023-04-28T09:07:53.969Z,100287.22
2023-04-28T09:10:21.828Z,100284.69
2023-04-28T09:12:50.218Z,100281.75
2023-04-28T09:15:18.079Z,100267.13
2023-04-28T09:17:45.940Z,100273.78
2023-04-28T09:20:16.206Z,100275.66
2023-04-28T09:22:44.085Z,100274.81
2023-04-28T09:25:12.057Z,100278.38
2023-04-28T09:34:36.643Z,100269.09
2023-04-28T10:05:00.487Z,100273.78
2023-04-28T10:07:30.964Z,100276.31
2023-04-28T10:09:58.887Z,100277.53
2023-04-28T10:12:27.017Z,100276.69
2023-04-28T10:14:55.031Z,100278.38
2023-04-28T10:17:22.861Z,100273.97
2023-04-28T10:19:52.559Z,100262.03
2023-04-28T10:22:20.404Z,100258.47
2023-04-28T10:24:48.418Z,100255.75
2023-04-28T10:27:17.871Z,100252.84
2023-04-28T10:29:45.703Z,100245.13
2023-04-28T10:32:13.539Z,100239.94
2023-04-28T10:34:41.509Z,100237.44
2023-04-28T10:37:09.320Z,100235.72
2023-04-28T10:39:37.183Z,100231.09
2023-04-28T10:42:05.201Z,100224.81
2023-04-28T10:44:33.068Z,100229.25
2023-04-28T10:47:01.027Z,100224.44
2023-04-28T10:49:28.854Z,100220.09
2023-04-28T10:51:56.905Z,100221.41
2023-04-28T10:54:25.442Z,100229.13
2023-04-28T10:56:53.317Z,100215.25
2023-04-28T10:59:21.097Z,100214.75
2023-04-28T11:01:48.886Z,100223.16
2023-04-28T11:04:18.084Z,100217.22
2023-04-28T11:06:46.251Z,100218.44
2023-04-28T11:09:14.105Z,100215.91
2023-04-28T11:11:41.903Z,100217.81
2023-04-28T11:14:09.887Z,100213.72
2023-04-28T11:16:37.726Z,100208.47
2023-04-28T11:19:05.834Z,100219.72
2023-04-28T11:21:33.847Z,100210.72
2023-04-28T11:24:01.622Z,100214.13
2023-04-28T11:26:29.726Z,100212.06
2023-04-28T11:28:57.611Z,100205.28
2023-04-28T11:31:25.450Z,100203.59
2023-04-28T11:33:53.272Z,100201.91
2023-04-28T11:36:21.130Z,100195.22
2023-04-28T11:38:49.337Z,100191.66
2023-04-28T11:41:17.178Z,100199.00
2023-04-28T11:43:47.638Z,100196.44
2023-04-28T11:46:16.063Z,100193.53
2023-04-28T11:48:43.912Z,100189.31
2023-04-28T11:51:11.698Z,100185.94
2023-04-28T11:53:39.495Z,100181.31
2023-04-28T11:56:09.291Z,100173.81
2023-04-28T11:58:37.176Z,100174.66
2023-04-28T12:01:04.985Z,100167.16
2023-04-28T12:03:33.113Z,100162.16
2023-04-28T12:06:01.209Z,100153.25
2023-04-28T12:08:29.134Z,100151.47
2023-04-28T12:10:57.238Z,100151.34
2023-04-28T12:13:24.975Z,100154.13
2023-04-28T12:15:53.146Z,100151.41
2023-04-28T12:18:21.001Z,100151.66
2023-04-28T12:20:48.806Z,100154.22
2023-04-28T12:23:16.593Z,100151.28
2023-04-28T12:25:44.554Z,100147.13
2023-04-28T12:28:12.444Z,100146.47
2023-04-28T12:30:42.266Z,100140.84
2023-04-28T12:33:10.339Z,100140.84
2023-04-28T12:35:38.498Z,100138.28
2023-04-28T12:38:06.497Z,100129.09
2023-04-28T12:40:34.266Z,100136.22
2023-04-28T12:43:02.072Z,100131.63
2023-04-28T12:45:30.354Z,100129.47
2023-04-28T12:47:58.151Z,100128.19
2023-04-28T12:50:27.186Z,100124.81
2023-04-28T12:52:56.265Z,100126.88
2023-04-28T12:55:24.105Z,100131.31
2023-04-28T12:57:52.000Z,100123.97
2023-04-28T13:00:23.330Z,100115.22
2023-04-28T13:02:51.462Z,100122.16
2023-04-28T13:05:19.690Z,100119.03
2023-04-28T13:07:47.813Z,100114.41
2023-04-28T13:10:15.639Z,100104.75
2023-04-28T13:12:43.511Z,100100.13
2023-04-28T13:15:11.257Z,100097.22
2023-04-28T13:17:39.751Z,100090.72
2023-04-28T13:20:07.732Z,100084.25
2023-04-28T13:22:36.016Z,100087.81
2023-04-28T13:25:04.006Z,100086.31
2023-04-28T13:27:33.344Z,100087.56
2023-04-28T13:30:01.204Z,100081.47
2023-04-28T13:32:29.775Z,100081.28
2023-04-28T13:34:57.698Z,100079.56
2023-04-28T13:37:25.577Z,100069.91
2023-04-28T13:39:53.448Z,100066.91
2023-04-28T13:42:21.362Z,100066.91
2023-04-28T13:44:49.399Z,100059.56
2023-04-28T13:47:17.218Z,100057.25
2023-04-28T13:49:45.023Z,100058.94
2023-04-28T13:52:12.798Z,100057.25
2023-04-28T13:54:40.647Z,100049.28
2023-04-28T13:57:08.448Z,100046.75
2023-04-28T13:59:36.232Z,100059.53
2023-04-28T14:02:04.125Z,100044.47
2023-04-28T14:04:32.165Z,100053.88
2023-04-28T14:07:00.128Z,100042.78
2023-04-28T14:09:28.082Z,100047.59
2023-04-28T14:11:56.693Z,100045.91
2023-04-28T14:14:24.497Z,100039.81
2023-04-28T14:16:52.349Z,100035.00
2023-04-28T14:19:20.995Z,100034.16
2023-04-28T14:21:48.999Z,100039.41
2023-04-28T14:24:16.784Z,100034.16
2023-04-28T14:26:45.218Z,100031.44
2023-04-28T14:29:13.005Z,100029.41
2023-04-28T14:31:41.192Z,100033.66
2023-04-28T14:34:09.532Z,100018.72
2023-04-28T14:36:38.355Z,100022.63
2023-04-28T14:39:06.220Z,100017.88
2023-04-28T14:41:33.988Z,100011.44
2023-04-28T14:44:01.817Z,100009.41
2023-04-28T14:46:30.004Z,100005.25
2023-04-28T14:48:58.481Z,100010.97
2023-04-28T14:51:27.153Z,100011.00
2023-04-28T14:53:55.106Z,100006.19
2023-04-28T14:56:23.038Z,100013.34
2023-04-28T14:58:50.842Z,100009.13
2023-04-28T15:01:19.263Z,100006.19
2023-04-28T15:03:47.398Z,100000.94
2023-04-28T15:06:15.379Z,100005.16
2023-04-28T15:08:43.289Z,99995.66
2023-04-28T15:11:11.071Z,99998.81
2023-04-28T15:13:40.018Z,99994.16
2023-04-28T15:16:10.205Z,99987.22
2023-04-28T15:18:38.523Z,99991.44
2023-04-28T15:21:06.404Z,99987.03
2023-04-28T15:23:34.335Z,99988.47
2023-04-28T15:26:02.602Z,99981.06
2023-04-28T15:28:30.822Z,99976.66
2023-04-28T15:30:58.621Z,99975.78
2023-04-28T15:33:26.676Z,99977.03
2023-04-28T15:35:54.558Z,99974.47
2023-04-28T15:38:22.969Z,99975.72
2023-04-28T15:40:50.878Z,99973.56
2023-04-28T15:43:18.809Z,99973.34
2023-04-28T15:45:47.659Z,99964.31
2023-04-28T15:48:16.639Z,99959.91
2023-04-28T15:50:44.477Z,99960.09
2023-04-28T15:53:12.356Z,99959.84
2023-04-28T15:55:40.558Z,99957.50
2023-04-28T15:58:08.984Z,99955.31
2023-04-28T16:00:37.246Z,99962.03
2023-04-28T16:03:05.203Z,99956.97
2023-04-28T16:05:33.193Z,99951.94
2023-04-28T16:08:01.420Z,99958.19
2023-04-28T16:10:29.818Z,99960.47
2023-04-28T16:12:58.947Z,99949.31
2023-04-28T16:15:26.906Z,99948.06
2023-04-28T16:17:56.998Z,99949.28
2023-04-28T16:20:25.004Z,99946.31
2023-04-28T16:22:53.384Z,99944.63
2023-04-28T16:25:21.498Z,99947.16
2023-04-28T16:27:49.624Z,99944.84
2023-04-28T16:30:18.194Z,99944.09
2023-04-28T16:32:46.257Z,99945.75
2023-04-28T16:35:15.500Z,99951.22
2023-04-28T16:37:43.615Z,99945.56
2023-04-28T16:40:11.840Z,99944.50
2023-04-28T16:42:39.965Z,99947.16
2023-04-28T16:45:10.074Z,99932.56
2023-04-28T16:47:38.268Z,99939.16
2023-04-28T16:50:06.531Z,99939.56
2023-04-28T16:52:34.323Z,99944.63
2023-04-28T16:55:02.289Z,99940.06
2023-04-28T16:57:30.293Z,99938.00
2023-04-28T16:59:58.214Z,99937.66
2023-04-28T17:02:26.359Z,99933.09
2023-04-28T17:04:54.374Z,99934.34
2023-04-28T17:07:24.932Z,99934.16
2023-04-28T17:09:53.819Z,99935.66
2023-04-28T17:12:23.482Z,99934.84
2023-04-28T17:14:52.981Z,99927.72
2023-04-28T17:17:21.200Z,99927.28
2023-04-28T17:19:49.170Z,99926.38
2023-04-28T17:22:17.315Z,99932.44
2023-04-28T17:24:45.547Z,99925.50
2023-04-28T17:27:14.797Z,99923.59
2023-04-28T17:29:42.956Z,99923.78
2023-04-28T17:32:11.253Z,99931.13
2023-04-28T17:34:39.097Z,99920.88
2023-04-28T17:37:07.255Z,99919.16
2023-04-28T17:39:35.164Z,99922.69
2023-04-28T17:42:04.879Z,99917.00
2023-04-28T17:44:32.850Z,99920.16
2023-04-28T17:47:01.559Z,99924.94
2023-04-28T17:49:29.571Z,99920.09
2023-04-28T17:51:57.403Z,99920.31
2023-04-28T17:54:25.383Z,99916.94
2023-04-28T17:56:53.341Z,99914.41
2023-04-28T17:59:21.217Z,99915.88
2023-04-28T18:01:49.206Z,99911.97
2023-04-28T18:04:17.012Z,99917.78
2023-04-28T18:06:44.976Z,99919.47
2023-04-28T18:09:12.825Z,99917.56
2023-04-28T18:11:42.946Z,99924.31
2023-04-28T18:14:10.956Z,99922.16
2023-04-28T18:16:38.889Z,99916.72
2023-04-28T18:19:07.087Z,99918.81
2023-04-28T18:21:35.335Z,99924.44
2023-04-28T18:24:03.263Z,99921.28
2023-04-28T18:26:31.244Z,99917.31
2023-04-28T18:28:59.076Z,99917.06
2023-04-28T18:31:26.912Z,99922.69
2023-04-28T18:33:55.344Z,99918.72
2023-04-28T18:36:23.282Z,99908.00
2023-04-28T18:38:51.092Z,99908.88
2023-04-28T18:41:19.212Z,99900.06
2023-04-28T18:43:47.063Z,99908.41
2023-04-28T18:46:14.980Z,99909.47
2023-04-28T18:48:43.411Z,99908.84
2023-04-28T18:51:11.418Z,99907.16
2023-04-28T18:53:39.357Z,99912.38
2023-04-28T18:56:07.370Z,99908.19
2023-04-28T18:58:37.115Z,99914.94
2023-04-28T19:01:05.224Z,99911.16
2023-04-28T19:03:33.418Z,99915.94
2023-04-28T19:06:01.539Z,99910.06
2023-04-28T19:08:29.492Z,99913.00
2023-04-28T19:10:57.310Z,99914.88
2023-04-28T19:13:25.262Z,99913.63
2023-04-28T19:15:53.185Z,99915.53
2023-04-28T19:18:21.175Z,99913.22
2023-04-28T19:20:50.604Z,99922.63
2023-04-28T19:23:18.408Z,99922.81
2023-04-28T19:25:46.231Z,99911.28
2023-04-28T19:28:14.093Z,99916.75
2023-04-28T19:30:42.059Z,99917.34
2023-04-28T19:33:10.011Z,99910.66
2023-04-28T19:35:38.028Z,99904.13
2023-04-28T19:38:05.800Z,99903.13
2023-04-28T19:40:33.890Z,99906.69
2023-04-28T19:43:01.721Z,99906.03
2023-04-28T19:45:29.551Z,99901.81
2023-04-28T19:47:58.034Z,99901.16
2023-04-28T19:50:25.929Z,99905.13
2023-04-28T19:52:53.833Z,99899.25
2023-04-28T19:55:23.122Z,99900.69
2023-04-28T19:57:52.311Z,99890.84
2023-04-28T20:00:20.224Z,99889.34
2023-04-28T20:02:48.225Z,99884.94
2023-04-28T20:05:16.098Z,99885.78
2023-04-28T20:07:44.068Z,99873.19
2023-04-28T20:10:12.736Z,99863.53
2023-04-28T20:12:40.572Z,99867.09
2023-04-28T20:15:08.634Z,99870.47
2023-04-28T20:17:36.463Z,99870.69
2023-04-28T20:20:04.888Z,99883.44
2023-04-28T20:22:32.889Z,99884.69
2023-04-28T20:25:01.991Z,99879.03
2023-04-28T20:27:29.756Z,99888.47
2023-04-28T20:29:57.649Z,99900.41
2023-04-28T20:32:26.073Z,99901.25
2023-04-28T20:34:54.143Z,99894.97
2023-04-28T20:37:22.216Z,99902.28
2023-04-28T20:39:50.706Z,99889.91
2023-04-28T20:42:18.928Z,99894.13
2023-04-28T20:44:48.810Z,99896.38
2023-04-28T20:47:16.786Z,99898.47
2023-04-28T20:49:44.639Z,99902.06
2023-04-28T20:52:12.723Z,99910.41
2023-04-28T20:54:40.692Z,99907.88
2023-04-28T20:57:09.356Z,99907.88
2023-04-28T20:59:37.210Z,99905.13
2023-04-28T21:02:05.206Z,99904.31
2023-04-28T21:04:33.201Z,99898.84
2023-04-28T21:07:01.054Z,99891.75
2023-04-28T21:09:28.906Z,99886.47
2023-04-28T21:11:56.726Z,99902.22
2023-04-28T21:14:24.709Z,99892.38
2023-04-28T21:16:52.562Z,99889.00
2023-04-28T21:19:20.407Z,99883.75
2023-04-28T21:21:48.182Z,99890.03
2023-04-28T21:24:16.108Z,99880.56
2023-04-28T21:26:44.115Z,99883.28
2023-04-28T21:29:12.032Z,99888.91
2023-04-28T21:31:39.922Z,99874.94
2023-04-28T21:34:07.773Z,99880.75
2023-04-28T21:36:35.582Z,99888.91
2023-04-28T21:39:04.478Z,99872.97
2023-04-28T21:41:32.400Z,99862.91
2023-04-28T21:44:00.553Z,99858.72
2023-04-28T21:46:28.466Z,99862.09
2023-04-28T21:48:56.691Z,99865.84
2023-04-28T21:51:24.535Z,99875.25
2023-04-28T21:53:52.295Z,99879.22
2023-04-28T21:56:20.117Z,99884.69
2023-04-28T21:58:47.929Z,99884.84
2023-04-28T22:01:18.489Z,99879.22
2023-04-28T22:03:46.578Z,99874.19
2023-04-28T22:06:14.568Z,99875.00
2023-04-28T22:08:42.487Z,99870.81
2023-04-28T22:11:10.303Z,99869.97
2023-04-28T22:13:38.350Z,99878.31
2023-04-28T22:16:06.693Z,99862.81
2023-04-28T22:18:34.654Z,99871.19
2023-04-28T22:21:02.572Z,99867.84
2023-04-28T22:23:30.449Z,99878.72
2023-04-28T22:25:58.345Z,99885.19
2023-04-28T22:28:26.577Z,99879.97
2023-04-28T22:30:55.111Z,99881.84
2023-04-28T22:33:22.966Z,99876.59
2023-04-28T22:35:50.924Z,99877.41
2023-04-28T22:38:18.704Z,99879.50
2023-04-28T22:40:46.701Z,99872.19
2023-04-28T22:43:14.510Z,99866.09
2023-04-28T22:45:42.560Z,99867.09
2023-04-28T22:48:10.552Z,99866.28
2023-04-28T22:50:38.513Z,99860.19
2023-04-28T22:53:06.353Z,99863.13
2023-04-28T22:55:34.305Z,99861.22
2023-04-28T22:58:02.147Z,99862.47
2023-04-28T23:00:30.004Z,99858.50
2023-04-28T23:02:57.890Z,99861.63
2023-04-28T23:05:25.889Z,99860.56
2023-04-28T23:07:53.758Z,99857.66
2023-04-28T23:10:21.545Z,99853.25
2023-04-28T23:12:49.619Z,99856.34
2023-04-28T23:15:17.572Z,99846.72
2023-04-28T23:17:45.413Z,99845.69
2023-04-28T23:20:13.609Z,99853.47
2023-04-28T23:22:41.786Z,99857.00
2023-04-28T23:25:09.694Z,99850.91
2023-04-28T23:27:37.519Z,99857.41
2023-04-28T23:30:05.300Z,99848.41
2023-04-28T23:32:33.251Z,99844.63
2023-04-28T23:35:01.005Z,99851.13
2023-04-28T23:37:28.874Z,99838.34
2023-04-28T23:39:56.668Z,99834.16
2023-04-28T23:42:24.788Z,99835.81
2023-04-28T23:44:52.828Z,99834.16
2023-04-28T23:47:20.781Z,99841.25
2023-04-28T23:49:48.788Z,99843.81
2023-04-28T23:52:16.649Z,99839.19
2023-04-28T23:54:44.752Z,99833.75
2023-04-28T23:57:12.624Z,99837.53
2023-04-28T23:59:40.428Z,99835.81
